Time;durP1;ratioP1;P1;durP2;ratioP2;P2;SDS_P1;SDS_P2;PMS_P1;PMS_P2;Temp;Humidity;BMP_temperature;BMP_pressure;BME280_temperature;BME280_humidity;BME280_pressure;Samples;Min_cycle;Max_cycle;Signal;HPM_P1;HPM_P2
2023/12/11 00:01:10;;;;;;;4.10;2.00;;;;;;;;;;4970245;28;20616;-83
2023/12/11 00:03:37;;;;;;;7.57;2.40;;;;;;;;;;4975021;28;20194;-84
2023/12/11 00:06:03;;;;;;;4.77;1.77;;;;;;;;;;4981754;28;20191;-83
2023/12/11 00:08:30;;;;;;;6.70;2.20;;;;;;;;;;4992926;28;20211;-83
2023/12/11 00:10:56;;;;;;;7.13;2.20;;;;;;;;;;4975028;28;20202;-83
2023/12/11 00:13:22;;;;;;;3.60;1.90;;;;;;;;;;4977064;28;20205;-83
2023/12/11 00:15:48;;;;;;;5.40;1.90;;;;;;;;;;4977284;28;20614;-83
2023/12/11 00:18:14;;;;;;;4.27;1.90;;;;;;;;;;4992764;28;20577;-83
2023/12/11 00:20:41;;;;;;;4.60;1.73;;;;;;;;;;5007465;28;20176;-83
2023/12/11 00:23:07;;;;;;;4.07;2.07;;;;;;;;;;4971038;28;20188;-83
2023/12/11 00:25:36;;;;;;;3.27;1.70;;;;;;;;;;4957759;28;20184;-83
2023/12/11 00:28:02;;;;;;;3.93;1.60;;;;;;;;;;4993078;28;20210;-83
2023/12/11 00:30:29;;;;;;;4.27;1.60;;;;;;;;;;4977109;28;20184;-83
2023/12/11 00:32:55;;;;;;;4.00;1.50;;;;;;;;;;4975399;28;20223;-83
2023/12/11 00:35:21;;;;;;;2.93;1.53;;;;;;;;;;4967755;28;20644;-83
2023/12/11 00:37:47;;;;;;;2.87;1.43;;;;;;;;;;4979443;28;20256;-83
2023/12/11 00:40:13;;;;;;;3.43;1.40;;;;;;;;;;4990645;28;20199;-83
2023/12/11 00:42:39;;;;;;;3.00;1.40;;;;;;;;;;4995685;28;20183;-83
2023/12/11 00:45:06;;;;;;;2.83;1.30;;;;;;;;;;4977797;28;20563;-83
2023/12/11 00:47:32;;;;;;;2.03;1.27;;;;;;;;;;4979442;28;20187;-83
2023/12/11 00:49:58;;;;;;;4.30;1.60;;;;;;;;;;4975719;28;20389;-84
2023/12/11 00:52:24;;;;;;;3.47;1.40;;;;;;;;;;4980868;28;20203;-83
2023/12/11 00:54:50;;;;;;;3.33;1.70;;;;;;;;;;4995639;28;20266;-83
2023/12/11 00:57:16;;;;;;;5.07;1.40;;;;;;;;;;4976482;28;20208;-83
2023/12/11 00:59:43;;;;;;;3.30;1.30;;;;;;;;;;4976593;28;20216;-83
2023/12/11 01:02:09;;;;;;;2.80;1.43;;;;;;;;;;4977613;28;20226;-83
2023/12/11 01:04:35;;;;;;;3.73;1.50;;;;;;;;;;4993109;28;20255;-84
2023/12/11 01:07:01;;;;;;;4.13;1.60;;;;;;;;;;4976596;28;20191;-84
2023/12/11 01:09:27;;;;;;;3.37;1.40;;;;;;;;;;4974511;28;20227;-83
2023/12/11 01:11:54;;;;;;;1.73;1.10;;;;;;;;;;4990643;28;20219;-83
2023/12/11 01:14:20;;;;;;;3.70;1.57;;;;;;;;;;4971003;28;20192;-83
2023/12/11 01:16:46;;;;;;;3.00;1.20;;;;;;;;;;4973239;28;20732;-83
2023/12/11 01:19:13;;;;;;;3.07;1.33;;;;;;;;;;4963626;28;20687;-83
2023/12/11 01:21:39;;;;;;;3.77;1.70;;;;;;;;;;4959531;28;20203;-83
2023/12/11 01:24:05;;;;;;;3.23;1.40;;;;;;;;;;4960940;28;20218;-83
2023/12/11 01:26:31;;;;;;;3.83;1.40;;;;;;;;;;4977216;28;20629;-83
2023/12/11 01:28:57;;;;;;;3.13;1.40;;;;;;;;;;4976605;28;20567;-83
2023/12/11 01:31:23;;;;;;;2.70;1.50;;;;;;;;;;4976033;28;20759;-83
2023/12/11 01:33:49;;;;;;;2.83;1.50;;;;;;;;;;4977165;28;20188;-83
2023/12/11 01:36:16;;;;;;;3.33;1.50;;;;;;;;;;4969418;28;20533;-83
2023/12/11 01:38:42;;;;;;;2.27;1.63;;;;;;;;;;4975148;28;20228;-84
2023/12/11 01:41:08;;;;;;;2.93;1.70;;;;;;;;;;4992668;28;20731;-82
2023/12/11 01:43:34;;;;;;;3.67;1.80;;;;;;;;;;4975876;28;20184;-83
2023/12/11 01:46:00;;;;;;;4.43;1.60;;;;;;;;;;4976266;28;20243;-83
2023/12/11 01:48:28;;;;;;;5.00;1.70;;;;;;;;;;4974891;28;20372;-83
2023/12/11 01:50:54;;;;;;;3.80;2.17;;;;;;;;;;4977017;28;20199;-84
2023/12/11 01:53:20;;;;;;;4.10;1.97;;;;;;;;;;4976331;28;20547;-83
2023/12/11 01:55:47;;;;;;;2.33;1.43;;;;;;;;;;4976302;28;20180;-83
2023/12/11 01:58:14;;;;;;;2.40;1.50;;;;;;;;;;4976818;28;20199;-83
2023/12/11 02:00:40;;;;;;;2.07;1.33;;;;;;;;;;4959108;28;20192;-83
2023/12/11 02:03:06;;;;;;;3.43;1.90;;;;;;;;;;4977006;28;20215;-84
2023/12/11 02:05:33;;;;;;;2.70;1.40;;;;;;;;;;4982635;28;20191;-83
2023/12/11 02:07:59;;;;;;;3.70;1.63;;;;;;;;;;4984049;28;20258;-83
2023/12/11 02:10:25;;;;;;;2.43;1.60;;;;;;;;;;4979018;28;20584;-83
2023/12/11 02:12:51;;;;;;;3.23;1.70;;;;;;;;;;4978825;28;20215;-83
2023/12/11 02:15:36;;;;;;;3.63;1.70;;;;;;;;;;4993588;28;20210;-83
2023/12/11 02:18:02;;;;;;;2.10;1.47;;;;;;;;;;4977881;28;20226;-83
2023/12/11 02:20:29;;;;;;;2.20;1.47;;;;;;;;;;4978371;28;20188;-83
2023/12/11 02:22:58;;;;;;;4.30;1.67;;;;;;;;;;4976564;28;20203;-83
2023/12/11 02:25:25;;;;;;;3.93;1.70;;;;;;;;;;4977992;28;20195;-83
2023/12/11 02:27:51;;;;;;;4.83;2.00;;;;;;;;;;4991093;28;20191;-83
2023/12/11 02:30:17;;;;;;;4.37;1.60;;;;;;;;;;4990706;28;20208;-83
2023/12/11 02:32:43;;;;;;;2.93;1.47;;;;;;;;;;4991548;28;20714;-84
2023/12/11 02:35:10;;;;;;;2.17;1.60;;;;;;;;;;4976619;28;20238;-84
2023/12/11 02:37:36;;;;;;;4.73;1.50;;;;;;;;;;4970829;28;20307;-84
2023/12/11 02:40:03;;;;;;;3.73;1.70;;;;;;;;;;4967242;28;20291;-84
2023/12/11 02:42:29;;;;;;;3.10;1.50;;;;;;;;;;4975989;28;20194;-83
2023/12/11 02:44:55;;;;;;;3.00;1.50;;;;;;;;;;4968900;28;20195;-83
2023/12/11 02:47:21;;;;;;;3.13;1.40;;;;;;;;;;4959501;28;20184;-83
2023/12/11 02:49:47;;;;;;;4.23;1.50;;;;;;;;;;4987925;28;20206;-83
2023/12/11 02:52:13;;;;;;;4.77;1.50;;;;;;;;;;4971193;28;20214;-83
2023/12/11 02:54:40;;;;;;;4.03;1.80;;;;;;;;;;4977569;28;20180;-83
2023/12/11 02:57:06;;;;;;;4.10;1.63;;;;;;;;;;4991532;28;20188;-84
2023/12/11 02:59:32;;;;;;;3.30;1.40;;;;;;;;;;4989684;28;20198;-83
2023/12/11 03:01:58;;;;;;;3.40;1.40;;;;;;;;;;4975071;28;20558;-84
2023/12/11 03:04:24;;;;;;;2.10;1.20;;;;;;;;;;4975988;28;20691;-84
2023/12/11 03:06:52;;;;;;;1.97;1.10;;;;;;;;;;4993649;28;20192;-84
2023/12/11 03:09:18;;;;;;;2.47;1.17;;;;;;;;;;4990643;28;20699;-83
2023/12/11 03:11:44;;;;;;;2.00;1.17;;;;;;;;;;4991310;28;20298;-83
2023/12/11 03:14:10;;;;;;;1.27;1.03;;;;;;;;;;4991557;28;20234;-84
2023/12/11 03:16:36;;;;;;;4.53;1.40;;;;;;;;;;4989608;28;20183;-83
2023/12/11 03:19:02;;;;;;;2.50;1.10;;;;;;;;;;4975130;28;20212;-83
2023/12/11 03:21:29;;;;;;;2.53;1.30;;;;;;;;;;4974332;28;20211;-83
2023/12/11 03:23:55;;;;;;;2.63;1.30;;;;;;;;;;4975798;28;20245;-83
2023/12/11 03:26:21;;;;;;;2.27;1.20;;;;;;;;;;4976594;28;20202;-83
2023/12/11 03:28:47;;;;;;;3.57;1.50;;;;;;;;;;4977111;28;20212;-83
2023/12/11 03:31:13;;;;;;;1.97;1.23;;;;;;;;;;4978135;28;20266;-84
2023/12/11 03:33:39;;;;;;;3.97;1.40;;;;;;;;;;4964447;28;20188;-84
2023/12/11 03:36:06;;;;;;;4.07;1.40;;;;;;;;;;4978907;28;20560;-84
2023/12/11 03:38:32;;;;;;;2.80;1.30;;;;;;;;;;4993439;28;20261;-83
2023/12/11 03:40:58;;;;;;;2.87;1.20;;;;;;;;;;4978638;28;20230;-84
2023/12/11 03:43:24;;;;;;;3.37;1.60;;;;;;;;;;4978797;28;20191;-84
2023/12/11 03:45:54;;;;;;;3.27;1.40;;;;;;;;;;4993894;28;20211;-83
2023/12/11 03:48:20;;;;;;;3.80;1.30;;;;;;;;;;4994718;28;20272;-85
2023/12/11 03:50:46;;;;;;;3.03;1.30;;;;;;;;;;4995037;28;20637;-85
2023/12/11 03:53:12;;;;;;;3.57;1.40;;;;;;;;;;4977953;28;20266;-83
2023/12/11 03:55:38;;;;;;;3.73;1.30;;;;;;;;;;4991415;28;20262;-83
2023/12/11 03:58:04;;;;;;;3.10;1.27;;;;;;;;;;4959159;28;20570;-84
2023/12/11 04:00:30;;;;;;;3.43;1.30;;;;;;;;;;4963377;28;20204;-84
2023/12/11 04:02:57;;;;;;;5.37;1.30;;;;;;;;;;4992832;28;20246;-85
2023/12/11 04:05:23;;;;;;;3.13;1.37;;;;;;;;;;4994004;28;20184;-83
2023/12/11 04:07:49;;;;;;;2.93;1.20;;;;;;;;;;5008268;28;20664;-83
2023/12/11 04:10:15;;;;;;;3.70;1.50;;;;;;;;;;4975881;28;20218;-84
2023/12/11 04:12:43;;;;;;;4.00;1.70;;;;;;;;;;4992924;28;20282;-83
2023/12/11 04:15:10;;;;;;;3.67;1.27;;;;;;;;;;4990719;28;20657;-83
2023/12/11 04:17:36;;;;;;;4.80;2.83;;;;;;;;;;4972094;28;20191;-83
2023/12/11 04:20:03;;;;;;;4.87;1.80;;;;;;;;;;4969945;28;20668;-83
2023/12/11 04:22:29;;;;;;;3.57;1.57;;;;;;;;;;4967593;28;20695;-84
2023/12/11 04:24:56;;;;;;;4.07;1.70;;;;;;;;;;4991838;28;20192;-84
2023/12/11 04:27:22;;;;;;;4.23;1.33;;;;;;;;;;4975701;28;20188;-83
2023/12/11 04:29:48;;;;;;;2.60;1.30;;;;;;;;;;4983045;28;20219;-83
2023/12/11 04:32:14;;;;;;;6.03;1.80;;;;;;;;;;4971944;28;20219;-83
2023/12/11 04:34:40;;;;;;;3.60;1.50;;;;;;;;;;4977834;28;20195;-84
2023/12/11 04:37:07;;;;;;;4.67;1.87;;;;;;;;;;4993863;28;20219;-84
2023/12/11 04:39:33;;;;;;;4.00;1.60;;;;;;;;;;4974925;28;20571;-84
2023/12/11 04:41:59;;;;;;;2.30;1.47;;;;;;;;;;4977921;28;20729;-83
2023/12/11 04:44:25;;;;;;;3.50;1.50;;;;;;;;;;4968567;28;20211;-84
2023/12/11 04:46:51;;;;;;;3.67;1.40;;;;;;;;;;4992091;28;20184;-84
2023/12/11 04:49:18;;;;;;;5.00;1.43;;;;;;;;;;4976613;28;20207;-84
2023/12/11 04:51:44;;;;;;;2.43;1.10;;;;;;;;;;4972004;28;20302;-84
2023/12/11 04:54:10;;;;;;;3.90;1.53;;;;;;;;;;4990368;28;20188;-83
2023/12/11 04:56:36;;;;;;;3.50;1.27;;;;;;;;;;4983647;28;20238;-83
2023/12/11 04:59:02;;;;;;;5.57;1.50;;;;;;;;;;4997841;28;20208;-84
2023/12/11 05:01:28;;;;;;;3.47;1.50;;;;;;;;;;4964264;28;20211;-83
2023/12/11 05:03:54;;;;;;;2.33;1.40;;;;;;;;;;4999197;28;20180;-84
2023/12/11 05:06:21;;;;;;;3.17;1.40;;;;;;;;;;4980914;28;20188;-83
2023/12/11 05:08:47;;;;;;;2.67;1.27;;;;;;;;;;4978199;28;20204;-84
2023/12/11 05:11:13;;;;;;;3.57;1.27;;;;;;;;;;4968879;28;20244;-83
2023/12/11 05:13:39;;;;;;;3.70;1.30;;;;;;;;;;4978282;28;20250;-83
2023/12/11 05:16:05;;;;;;;1.90;1.00;;;;;;;;;;4979488;28;20195;-84
2023/12/11 05:18:32;;;;;;;2.90;1.20;;;;;;;;;;4994403;28;20210;-83
2023/12/11 05:20:58;;;;;;;2.60;1.40;;;;;;;;;;4972470;28;20184;-84
2023/12/11 05:23:24;;;;;;;3.07;1.30;;;;;;;;;;4980365;28;20187;-84
2023/12/11 05:25:50;;;;;;;2.33;1.30;;;;;;;;;;4981476;28;20192;-84
2023/12/11 05:28:17;;;;;;;1.73;1.10;;;;;;;;;;5006336;28;20664;-84
2023/12/11 05:30:43;;;;;;;3.70;1.23;;;;;;;;;;5001525;28;20246;-83
2023/12/11 05:33:09;;;;;;;2.33;1.30;;;;;;;;;;4984492;28;20211;-83
2023/12/11 05:35:35;;;;;;;2.73;1.30;;;;;;;;;;4984911;28;20237;-84
2023/12/11 05:38:01;;;;;;;3.17;1.30;;;;;;;;;;4984193;28;20184;-84
2023/12/11 05:40:28;;;;;;;2.97;1.50;;;;;;;;;;4979884;28;20255;-83
2023/12/11 05:42:54;;;;;;;2.40;1.20;;;;;;;;;;4983858;28;20753;-84
2023/12/11 05:45:20;;;;;;;1.83;1.20;;;;;;;;;;4982618;28;20211;-83
2023/12/11 05:47:46;;;;;;;1.73;1.20;;;;;;;;;;5000553;28;20179;-83
2023/12/11 05:50:13;;;;;;;1.63;1.10;;;;;;;;;;4998556;28;20276;-83
2023/12/11 05:52:39;;;;;;;2.13;1.10;;;;;;;;;;4981737;28;20208;-84
2023/12/11 05:55:05;;;;;;;1.40;1.07;;;;;;;;;;4992900;28;20193;-83
2023/12/11 05:57:31;;;;;;;2.93;1.30;;;;;;;;;;4960545;28;20304;-84
2023/12/11 05:59:57;;;;;;;2.77;1.10;;;;;;;;;;4976639;28;20792;-83
2023/12/11 06:02:24;;;;;;;2.43;1.20;;;;;;;;;;4971125;28;20274;-83
2023/12/11 06:04:51;;;;;;;1.63;0.90;;;;;;;;;;4987257;28;20195;-84
2023/12/11 06:07:17;;;;;;;2.43;1.20;;;;;;;;;;4989350;28;20188;-83
2023/12/11 06:09:43;;;;;;;2.13;1.20;;;;;;;;;;4983399;28;20211;-83
2023/12/11 06:12:10;;;;;;;4.63;1.20;;;;;;;;;;4971202;28;20564;-79
2023/12/11 06:14:40;;;;;;;1.50;1.10;;;;;;;;;;4987367;28;20199;-79
2023/12/11 06:17:06;;;;;;;1.30;1.10;;;;;;;;;;4991715;28;20710;-78
2023/12/11 06:19:32;;;;;;;1.88;1.10;;;;;;;;;;4991247;28;20569;-78
2023/12/11 06:21:58;;;;;;;2.53;1.30;;;;;;;;;;4992155;28;20275;-82
2023/12/11 06:24:24;;;;;;;1.83;1.30;;;;;;;;;;4993137;28;20199;-80
2023/12/11 06:26:50;;;;;;;2.17;1.50;;;;;;;;;;4996321;28;20191;-82
2023/12/11 06:29:17;;;;;;;1.40;1.23;;;;;;;;;;4975641;28;20242;-78
2023/12/11 06:31:43;;;;;;;3.03;1.40;;;;;;;;;;4990349;28;20218;-80
2023/12/11 06:34:10;;;;;;;1.93;0.97;;;;;;;;;;4978153;28;20247;-79
2023/12/11 06:36:36;;;;;;;3.20;1.43;;;;;;;;;;4987279;28;20702;-79
2023/12/11 06:39:02;;;;;;;1.87;1.30;;;;;;;;;;4990264;28;20208;-79
2023/12/11 06:41:28;;;;;;;2.30;1.47;;;;;;;;;;4997462;28;20203;-79
2023/12/11 06:43:57;;;;;;;3.50;1.30;;;;;;;;;;4995823;28;20287;-79
2023/12/11 06:46:25;;;;;;;3.73;1.33;;;;;;;;;;4995459;28;20186;-80
2023/12/11 06:48:51;;;;;;;1.83;1.33;;;;;;;;;;4977861;28;20207;-79
2023/12/11 06:51:17;;;;;;;3.33;1.53;;;;;;;;;;4993432;28;20607;-79
2023/12/11 06:53:43;;;;;;;5.13;1.50;;;;;;;;;;4990913;28;20184;-79
2023/12/11 06:56:17;;;;;;;3.80;1.40;;;;;;;;;;4971362;28;20184;-77
2023/12/11 06:58:44;;;;;;;1.97;1.50;;;;;;;;;;4987064;28;20238;-75
2023/12/11 07:01:10;;;;;;;3.23;1.50;;;;;;;;;;4986604;28;20223;-76
2023/12/11 07:03:36;;;;;;;2.50;1.23;;;;;;;;;;4987052;28;20207;-76
2023/12/11 07:06:02;;;;;;;3.00;1.20;;;;;;;;;;4986587;28;20184;-76
2023/12/11 07:08:28;;;;;;;3.00;1.40;;;;;;;;;;4986449;28;20223;-76
2023/12/11 07:10:55;;;;;;;3.17;1.37;;;;;;;;;;4986300;28;20877;-76
2023/12/11 07:13:21;;;;;;;3.40;1.53;;;;;;;;;;4986442;28;20187;-76
2023/12/11 07:15:47;;;;;;;4.57;1.63;;;;;;;;;;4987498;28;20187;-76
2023/12/11 07:18:13;;;;;;;2.53;1.50;;;;;;;;;;4986078;28;20234;-77
2023/12/11 07:20:42;;;;;;;2.80;1.63;;;;;;;;;;4986218;28;20176;-77
2023/12/11 07:23:10;;;;;;;3.30;1.50;;;;;;;;;;4987500;28;20187;-76
2023/12/11 07:25:38;;;;;;;2.50;1.33;;;;;;;;;;4981738;28;20211;-76
2023/12/11 07:28:05;;;;;;;2.20;1.53;;;;;;;;;;4984459;28;20199;-76
2023/12/11 07:30:31;;;;;;;2.30;1.27;;;;;;;;;;4985037;28;20188;-76
2023/12/11 07:32:57;;;;;;;2.90;1.33;;;;;;;;;;4987814;28;20272;-76
2023/12/11 07:35:24;;;;;;;3.17;1.50;;;;;;;;;;4984764;28;20192;-76
2023/12/11 07:37:51;;;;;;;3.27;1.40;;;;;;;;;;4987117;28;20302;-76
2023/12/11 07:40:17;;;;;;;3.20;1.40;;;;;;;;;;4984260;28;20571;-76
2023/12/11 07:42:45;;;;;;;2.57;1.50;;;;;;;;;;4985126;28;20191;-76
2023/12/11 07:45:11;;;;;;;2.20;1.40;;;;;;;;;;4985550;28;20206;-76
2023/12/11 07:47:37;;;;;;;2.70;1.40;;;;;;;;;;4986443;28;20642;-76
2023/12/11 07:50:03;;;;;;;3.03;1.60;;;;;;;;;;4983129;28;20508;-76
2023/12/11 07:52:31;;;;;;;3.57;1.60;;;;;;;;;;4986946;28;20226;-76
2023/12/11 07:54:57;;;;;;;5.57;1.60;;;;;;;;;;4986998;28;20180;-76
2023/12/11 07:57:27;;;;;;;1.97;1.50;;;;;;;;;;4985806;28;20167;-76
2023/12/11 07:59:53;;;;;;;2.80;1.70;;;;;;;;;;4987389;28;20196;-76
2023/12/11 08:02:20;;;;;;;4.87;1.80;;;;;;;;;;4985415;28;20284;-76
2023/12/11 08:04:46;;;;;;;3.67;1.70;;;;;;;;;;4986275;28;20744;-76
2023/12/11 08:07:16;;;;;;;4.63;1.50;;;;;;;;;;4986620;28;20652;-76
2023/12/11 08:09:43;;;;;;;3.07;1.50;;;;;;;;;;4987276;28;20800;-76
2023/12/11 08:12:09;;;;;;;3.87;1.70;;;;;;;;;;4987654;28;20208;-76
2023/12/11 08:14:36;;;;;;;2.53;1.40;;;;;;;;;;4987964;28;20204;-76
2023/12/11 08:17:03;;;;;;;3.27;1.40;;;;;;;;;;4984048;28;20191;-76
2023/12/11 08:19:29;;;;;;;2.10;1.40;;;;;;;;;;4983615;28;20234;-76
2023/12/11 08:21:55;;;;;;;5.03;2.10;;;;;;;;;;4986366;28;20546;-76
2023/12/11 08:24:21;;;;;;;6.10;2.20;;;;;;;;;;4986284;28;20261;-76
2023/12/11 08:26:48;;;;;;;6.43;2.23;;;;;;;;;;5001878;28;20266;-76
2023/12/11 08:29:14;;;;;;;8.60;2.30;;;;;;;;;;4987135;28;20411;-76
2023/12/11 08:31:40;;;;;;;6.17;2.00;;;;;;;;;;4984852;28;20240;-77
2023/12/11 08:34:06;;;;;;;5.63;2.00;;;;;;;;;;4986424;28;20184;-76
2023/12/11 08:36:32;;;;;;;5.67;2.03;;;;;;;;;;4987587;28;20176;-76
2023/12/11 08:38:59;;;;;;;6.30;1.73;;;;;;;;;;4990271;28;20204;-76
2023/12/11 08:41:25;;;;;;;5.73;2.07;;;;;;;;;;4988753;28;20230;-76
2023/12/11 08:43:51;;;;;;;6.53;1.97;;;;;;;;;;4989539;28;20188;-76
2023/12/11 08:46:17;;;;;;;7.67;2.50;;;;;;;;;;4973649;28;20184;-76
2023/12/11 08:48:44;;;;;;;9.50;1.90;;;;;;;;;;4984140;28;20215;-77
2023/12/11 08:51:10;;;;;;;5.77;2.03;;;;;;;;;;4989388;28;20184;-76
2023/12/11 08:53:36;;;;;;;6.60;1.93;;;;;;;;;;4988548;28;20181;-76
2023/12/11 08:56:03;;;;;;;6.77;2.13;;;;;;;;;;4988266;28;20188;-76
2023/12/11 08:58:29;;;;;;;8.30;2.10;;;;;;;;;;4990751;28;20220;-76
2023/12/11 09:00:55;;;;;;;11.50;1.90;;;;;;;;;;4993088;28;20195;-76
2023/12/11 09:03:21;;;;;;;6.77;1.90;;;;;;;;;;4992413;28;20200;-77
2023/12/11 09:05:47;;;;;;;9.30;1.90;;;;;;;;;;4992357;28;20176;-76
2023/12/11 09:08:14;;;;;;;5.50;2.10;;;;;;;;;;4992718;28;20280;-76
2023/12/11 09:10:40;;;;;;;9.73;2.87;;;;;;;;;;4989633;28;20235;-76
2023/12/11 09:13:07;;;;;;;6.10;2.20;;;;;;;;;;4991756;28;20235;-76
2023/12/11 09:15:33;;;;;;;5.97;1.87;;;;;;;;;;4985263;28;20437;-76
2023/12/11 09:17:59;;;;;;;9.47;2.20;;;;;;;;;;4988135;28;20754;-76
2023/12/11 09:20:26;;;;;;;7.90;2.20;;;;;;;;;;4987897;28;20189;-76
2023/12/11 09:22:52;;;;;;;6.97;2.10;;;;;;;;;;4990056;28;20558;-76
2023/12/11 09:25:18;;;;;;;6.77;2.20;;;;;;;;;;4990620;28;20275;-76
2023/12/11 09:27:44;;;;;;;7.10;2.30;;;;;;;;;;4990010;28;20188;-76
2023/12/11 09:30:11;;;;;;;8.73;2.30;;;;;;;;;;4989267;28;20740;-77
2023/12/11 09:32:37;;;;;;;9.30;2.33;;;;;;;;;;4988039;28;20808;-76
2023/12/11 09:35:04;;;;;;;6.60;1.97;;;;;;;;;;4989761;28;20188;-76
2023/12/11 09:37:30;;;;;;;5.90;1.80;;;;;;;;;;4992217;28;20696;-76
2023/12/11 09:39:57;;;;;;;6.17;1.90;;;;;;;;;;4991418;28;20208;-76
2023/12/11 09:42:23;;;;;;;5.57;2.10;;;;;;;;;;4990367;28;20227;-76
2023/12/11 09:44:49;;;;;;;8.87;2.30;;;;;;;;;;4985621;28;21396;-76
2023/12/11 09:47:31;;;;;;;8.03;1.87;;;;;;;;;;4988542;28;20189;-76
2023/12/11 09:49:58;;;;;;;5.43;1.70;;;;;;;;;;4989223;28;20258;-76
2023/12/11 09:52:24;;;;;;;5.47;1.90;;;;;;;;;;4988761;28;20208;-76
2023/12/11 09:54:50;;;;;;;7.60;2.03;;;;;;;;;;4991549;28;20267;-76
2023/12/11 09:57:16;;;;;;;8.40;2.13;;;;;;;;;;4987614;28;20173;-78
2023/12/11 09:59:44;;;;;;;4.33;1.60;;;;;;;;;;4991838;28;20439;-76
2023/12/11 10:02:14;;;;;;;7.43;1.97;;;;;;;;;;4989416;28;20203;-76
2023/12/11 10:04:59;;;;;;;4.43;1.90;;;;;;;;;;4991226;28;20196;-76
2023/12/11 10:07:26;;;;;;;8.53;2.10;;;;;;;;;;4991122;28;20189;-76
2023/12/11 10:09:52;;;;;;;5.73;1.80;;;;;;;;;;4974766;28;20236;-76
2023/12/11 10:12:18;;;;;;;5.60;1.77;;;;;;;;;;4992829;28;20207;-76
2023/12/11 10:14:59;;;;;;;6.23;2.00;;;;;;;;;;4993505;28;20195;-76
2023/12/11 10:17:25;;;;;;;7.50;2.47;;;;;;;;;;4992895;28;20181;-76
2023/12/11 10:19:51;;;;;;;5.17;1.90;;;;;;;;;;4991857;28;20227;-76
2023/12/11 10:22:29;;;;;;;7.17;2.03;;;;;;;;;;4991619;28;20192;-76
2023/12/11 10:24:55;;;;;;;6.73;2.07;;;;;;;;;;4987599;28;20680;-76
2023/12/11 10:27:22;;;;;;;6.23;2.17;;;;;;;;;;4988697;28;20192;-76
2023/12/11 10:29:48;;;;;;;9.27;2.30;;;;;;;;;;4992018;28;20212;-76
2023/12/11 10:32:15;;;;;;;7.53;2.20;;;;;;;;;;4991585;28;20223;-76
2023/12/11 10:34:42;;;;;;;5.50;1.93;;;;;;;;;;4974737;28;20561;-76
2023/12/11 10:37:13;;;;;;;6.17;2.03;;;;;;;;;;4992614;28;20580;-76
2023/12/11 10:39:51;;;;;;;6.40;2.20;;;;;;;;;;4992377;28;20215;-76
2023/12/11 10:42:17;;;;;;;8.07;2.13;;;;;;;;;;4991497;28;20270;-76
2023/12/11 10:44:43;;;;;;;6.50;2.10;;;;;;;;;;4991179;28;20193;-76
2023/12/11 10:47:10;;;;;;;8.87;2.23;;;;;;;;;;4992443;28;20212;-76
2023/12/11 10:49:36;;;;;;;9.97;2.47;;;;;;;;;;4990132;28;20584;-76
2023/12/11 10:52:03;;;;;;;10.07;2.43;;;;;;;;;;4992278;28;20208;-76
2023/12/11 10:54:30;;;;;;;7.67;2.30;;;;;;;;;;4990818;28;20567;-76
2023/12/11 10:56:56;;;;;;;8.33;1.93;;;;;;;;;;4990315;28;20660;-76
2023/12/11 10:59:22;;;;;;;7.57;2.00;;;;;;;;;;4990054;28;20345;-76
2023/12/11 11:01:49;;;;;;;10.33;2.33;;;;;;;;;;4992524;28;20191;-76
2023/12/11 11:04:16;;;;;;;10.87;2.43;;;;;;;;;;4991353;28;20688;-76
2023/12/11 11:07:03;;;;;;;9.27;2.37;;;;;;;;;;4974231;28;20617;-76
2023/12/11 11:09:49;;;;;;;8.97;2.43;;;;;;;;;;4963346;28;20220;-76
2023/12/11 11:12:31;;;;;;;7.70;2.37;;;;;;;;;;4991659;28;20211;-76
2023/12/11 11:14:58;;;;;;;7.37;2.17;;;;;;;;;;4985306;28;20192;-76
2023/12/11 11:17:24;;;;;;;9.43;2.47;;;;;;;;;;4990298;28;20586;-76
2023/12/11 11:20:10;;;;;;;8.73;2.33;;;;;;;;;;4989364;28;20584;-76
2023/12/11 11:22:36;;;;;;;8.17;2.53;;;;;;;;;;4989168;28;20662;-76
2023/12/11 11:25:32;;;;;;;9.33;2.60;;;;;;;;;;4975101;28;20207;-76
2023/12/11 11:27:59;;;;;;;10.20;2.30;;;;;;;;;;4981360;28;20203;-76
2023/12/11 11:30:46;;;;;;;12.97;2.60;;;;;;;;;;4972607;28;20330;-76
2023/12/11 11:33:13;;;;;;;10.43;2.30;;;;;;;;;;4990327;28;20229;-76
2023/12/11 11:35:49;;;;;;;5.63;2.00;;;;;;;;;;4973751;28;20192;-76
2023/12/11 11:38:19;;;;;;;10.07;2.70;;;;;;;;;;4988639;28;20188;-76
2023/12/11 11:40:45;;;;;;;10.97;2.40;;;;;;;;;;4988831;28;20306;-76
2023/12/11 11:43:13;;;;;;;8.53;2.47;;;;;;;;;;4990199;28;20191;-76
2023/12/11 11:45:39;;;;;;;7.67;2.43;;;;;;;;;;4990331;28;20202;-76
2023/12/11 11:48:06;;;;;;;11.37;2.30;;;;;;;;;;4991367;28;20598;-76
2023/12/11 11:50:32;;;;;;;11.83;2.63;;;;;;;;;;4988143;28;20254;-76
2023/12/11 11:53:05;;;;;;;12.50;2.83;;;;;;;;;;4986850;28;20298;-76
2023/12/11 11:55:31;;;;;;;13.43;3.10;;;;;;;;;;4990501;28;20204;-76
2023/12/11 11:57:57;;;;;;;10.40;2.50;;;;;;;;;;4990102;28;20223;-76
2023/12/11 12:00:24;;;;;;;12.27;2.87;;;;;;;;;;4989591;28;20200;-76
2023/12/11 12:02:57;;;;;;;11.40;2.60;;;;;;;;;;4991253;28;20555;-76
2023/12/11 12:05:23;;;;;;;10.83;2.60;;;;;;;;;;4988536;28;20182;-76
2023/12/11 12:07:49;;;;;;;7.43;2.33;;;;;;;;;;4990143;28;20202;-76
2023/12/11 12:10:17;;;;;;;9.20;2.50;;;;;;;;;;4989304;28;20215;-76
2023/12/11 12:12:49;;;;;;;7.00;2.50;;;;;;;;;;4988471;28;20215;-77
2023/12/11 12:15:16;;;;;;;7.77;2.33;;;;;;;;;;4989318;28;20203;-77
2023/12/11 12:17:45;;;;;;;9.87;2.63;;;;;;;;;;4996850;28;20263;-76
2023/12/11 12:20:11;;;;;;;11.33;2.47;;;;;;;;;;4988810;28;20200;-77
2023/12/11 12:22:37;;;;;;;8.37;2.23;;;;;;;;;;4989049;28;20193;-76
2023/12/11 12:25:12;;;;;;;10.10;2.20;;;;;;;;;;4990984;28;20600;-77
2023/12/11 12:27:38;;;;;;;9.80;2.63;;;;;;;;;;4990079;28;20188;-78
2023/12/11 12:30:05;;;;;;;9.20;2.43;;;;;;;;;;4974068;28;20708;-75
2023/12/11 12:32:32;;;;;;;10.67;3.00;;;;;;;;;;4994434;28;20296;-76
2023/12/11 12:34:58;;;;;;;8.93;2.23;;;;;;;;;;4994900;28;20543;-78
2023/12/11 12:37:25;;;;;;;10.83;2.57;;;;;;;;;;4994888;28;20179;-75
2023/12/11 12:39:56;;;;;;;11.50;2.57;;;;;;;;;;4991001;28;20567;-74
2023/12/11 12:42:29;;;;;;;12.07;2.60;;;;;;;;;;4994981;28;20686;-73
2023/12/11 12:44:55;;;;;;;7.33;2.17;;;;;;;;;;4992129;28;20196;-77
2023/12/11 12:47:21;;;;;;;12.53;2.63;;;;;;;;;;4988233;28;20223;-79
2023/12/11 12:49:47;;;;;;;10.33;2.30;;;;;;;;;;4977361;28;20264;-75
2023/12/11 12:52:22;;;;;;;9.47;2.27;;;;;;;;;;4993909;28;20227;-80
2023/12/11 12:54:49;;;;;;;11.93;2.53;;;;;;;;;;4979102;28;20212;-75
2023/12/11 12:57:16;;;;;;;8.50;2.40;;;;;;;;;;4991615;28;20235;-77
2023/12/11 12:59:42;;;;;;;7.03;1.97;;;;;;;;;;4986871;28;20256;-77
2023/12/11 13:02:13;;;;;;;6.33;2.10;;;;;;;;;;4990574;28;20350;-77
2023/12/11 13:04:49;;;;;;;10.40;2.43;;;;;;;;;;4990525;28;20216;-77
2023/12/11 13:07:16;;;;;;;8.67;2.20;;;;;;;;;;4992057;28;20188;-77
2023/12/11 13:09:42;;;;;;;8.70;2.10;;;;;;;;;;4992318;28;20215;-77
2023/12/11 13:12:08;;;;;;;8.07;2.40;;;;;;;;;;4992288;28;20290;-77
2023/12/11 13:14:35;;;;;;;7.77;2.17;;;;;;;;;;4991259;28;20717;-77
2023/12/11 13:17:01;;;;;;;7.70;2.23;;;;;;;;;;4991523;28;20188;-77
2023/12/11 13:19:27;;;;;;;8.80;2.50;;;;;;;;;;4975375;28;20205;-77
2023/12/11 13:21:53;;;;;;;8.37;2.27;;;;;;;;;;4987269;28;20224;-77
2023/12/11 13:24:21;;;;;;;10.97;2.40;;;;;;;;;;4992944;28;20191;-77
2023/12/11 13:26:47;;;;;;;9.13;2.60;;;;;;;;;;4985803;28;20191;-77
2023/12/11 13:29:14;;;;;;;9.20;2.70;;;;;;;;;;4993628;28;20266;-77
2023/12/11 13:31:40;;;;;;;10.07;2.63;;;;;;;;;;4992649;28;20216;-77
2023/12/11 13:34:06;;;;;;;11.63;2.30;;;;;;;;;;4993935;28;20184;-77
2023/12/11 13:36:33;;;;;;;10.93;2.60;;;;;;;;;;4992682;28;20242;-77
2023/12/11 13:38:59;;;;;;;11.17;2.30;;;;;;;;;;4992319;28;20210;-77
2023/12/11 13:41:25;;;;;;;8.47;2.20;;;;;;;;;;4992780;28;20173;-77
2023/12/11 13:43:51;;;;;;;11.27;3.00;;;;;;;;;;4992758;28;20177;-77
2023/12/11 13:46:17;;;;;;;6.90;2.20;;;;;;;;;;4992656;28;20180;-77
2023/12/11 13:48:48;;;;;;;9.20;2.27;;;;;;;;;;4992999;28;20742;-77
2023/12/11 13:51:14;;;;;;;11.47;2.80;;;;;;;;;;4992176;28;20189;-77
2023/12/11 13:53:40;;;;;;;8.70;2.20;;;;;;;;;;4991775;28;20269;-77
2023/12/11 13:56:06;;;;;;;8.23;1.93;;;;;;;;;;4992656;28;20421;-77
2023/12/11 13:58:32;;;;;;;5.93;1.90;;;;;;;;;;4990145;28;20213;-78
2023/12/11 14:01:00;;;;;;;6.60;1.70;;;;;;;;;;4992356;28;20583;-77
2023/12/11 14:03:26;;;;;;;8.50;2.13;;;;;;;;;;4992074;28;20189;-77
2023/12/11 14:05:52;;;;;;;3.70;1.30;;;;;;;;;;4991359;28;20653;-77
2023/12/11 14:08:18;;;;;;;5.53;1.50;;;;;;;;;;4991512;28;20249;-77
2023/12/11 14:10:45;;;;;;;8.60;1.90;;;;;;;;;;4992810;28;20228;-77
2023/12/11 14:13:12;;;;;;;6.87;1.80;;;;;;;;;;4992354;28;20295;-77
2023/12/11 14:15:42;;;;;;;7.53;1.77;;;;;;;;;;4991431;28;20664;-77
2023/12/11 14:18:10;;;;;;;6.73;1.60;;;;;;;;;;4990852;28;20185;-77
2023/12/11 14:20:36;;;;;;;4.03;1.47;;;;;;;;;;4991852;28;20260;-77
2023/12/11 14:23:02;;;;;;;9.60;2.30;;;;;;;;;;4990997;28;20202;-77
2023/12/11 14:25:29;;;;;;;8.67;1.97;;;;;;;;;;4990365;28;20242;-77
2023/12/11 14:27:55;;;;;;;11.00;2.00;;;;;;;;;;4992472;28;20626;-77
2023/12/11 14:30:21;;;;;;;7.70;1.90;;;;;;;;;;4997897;28;20225;-77
2023/12/11 14:32:47;;;;;;;8.13;2.13;;;;;;;;;;4992825;28;20217;-77
2023/12/11 14:35:13;;;;;;;5.97;2.13;;;;;;;;;;4997546;28;20273;-77
2023/12/11 14:37:39;;;;;;;7.30;2.30;;;;;;;;;;4991666;28;20551;-77
2023/12/11 14:40:06;;;;;;;7.80;2.47;;;;;;;;;;4995501;28;20207;-77